createdAt,value
2019-06-10T00:01:33.516Z,15.80
2019-06-10T00:04:05.145Z,15.80
2019-06-10T00:06:32.507Z,15.80
2019-06-10T00:09:04.607Z,15.80
2019-06-10T00:11:32.357Z,15.80
2019-06-10T00:14:02.774Z,15.70
2019-06-10T00:16:31.768Z,15.80
2019-06-10T00:19:04.832Z,15.70
2019-06-10T00:21:33.441Z,15.70
2019-06-10T00:24:03.959Z,15.70
2019-06-10T00:26:32.675Z,15.70
2019-06-10T00:29:03.164Z,15.70
2019-06-10T00:31:31.737Z,15.70
2019-06-10T00:34:02.988Z,15.70
2019-06-10T00:36:31.577Z,15.70
2019-06-10T00:39:03.786Z,15.70
2019-06-10T00:41:31.441Z,15.70
2019-06-10T00:44:02.457Z,15.70
2019-06-10T00:46:31.669Z,15.70
2019-06-10T00:49:02.956Z,15.70
2019-06-10T00:51:31.370Z,15.70
2019-06-10T00:54:03.365Z,15.70
2019-06-10T00:56:31.099Z,15.60
2019-06-10T00:59:01.004Z,15.70
2019-06-10T01:01:31.263Z,15.70
2019-06-10T01:04:01.861Z,15.60
2019-06-10T01:06:31.913Z,15.60
2019-06-10T01:09:00.839Z,15.60
2019-06-10T01:11:31.059Z,15.60
2019-06-10T01:14:01.490Z,15.60
2019-06-10T01:16:31.766Z,15.60
2019-06-10T01:19:01.475Z,15.60
2019-06-10T01:21:31.314Z,15.60
2019-06-10T01:24:01.185Z,15.50
2019-06-10T01:26:31.076Z,15.40
2019-06-10T01:29:00.987Z,15.50
2019-06-10T01:31:31.720Z,15.50
2019-06-10T01:34:00.878Z,15.50
2019-06-10T01:36:31.364Z,15.40
2019-06-10T01:39:01.521Z,15.40
2019-06-10T01:41:30.706Z,15.50
2019-06-10T01:44:01.793Z,15.40
2019-06-10T01:46:31.642Z,15.40
2019-06-10T01:49:01.555Z,15.40
2019-06-10T01:51:31.670Z,15.40
2019-06-10T01:54:01.307Z,15.30
2019-06-10T01:56:31.531Z,15.20
2019-06-10T01:59:01.428Z,15.20
2019-06-10T02:01:32.388Z,15.30
2019-06-10T02:04:01.039Z,15.30
2019-06-10T02:06:31.660Z,15.30
2019-06-10T02:09:06.852Z,15.40
2019-06-10T02:11:36.267Z,15.40
2019-06-10T02:14:05.687Z,15.40
2019-06-10T02:16:34.708Z,15.30
2019-06-10T02:19:04.299Z,15.30
2019-06-10T02:21:33.361Z,15.30
2019-06-10T02:24:02.429Z,15.40
2019-06-10T02:26:31.091Z,15.40
2019-06-10T02:29:00.671Z,15.40
2019-06-10T02:31:36.981Z,15.30
2019-06-10T02:34:02.566Z,15.20
2019-06-10T02:36:36.124Z,15.20
2019-06-10T02:39:04.345Z,15.10
2019-06-10T02:41:36.038Z,15.20
2019-06-10T02:44:04.277Z,15.10
2019-06-10T02:46:36.126Z,15.10
2019-06-10T02:49:20.558Z,15.10
2019-06-10T02:51:36.107Z,15.10
2019-06-10T02:54:05.157Z,15.10
2019-06-10T02:56:36.404Z,15.10
2019-06-10T02:59:05.217Z,15.00
2019-06-10T03:01:37.847Z,15.10
2019-06-10T03:04:05.601Z,15.10
2019-06-10T03:06:39.520Z,15.10
2019-06-10T03:09:06.081Z,15.00
2019-06-10T03:11:37.132Z,15.00
2019-06-10T03:14:05.312Z,15.00
2019-06-10T03:16:44.696Z,15.00
2019-06-10T03:19:13.653Z,14.90
2019-06-10T03:21:42.850Z,15.00
2019-06-10T03:24:13.098Z,14.90
2019-06-10T03:26:42.858Z,14.90
2019-06-10T03:29:12.860Z,14.90
2019-06-10T03:31:47.819Z,14.80
2019-06-10T03:34:14.746Z,14.70
2019-06-10T03:36:43.574Z,14.60
2019-06-10T03:39:13.272Z,14.60
2019-06-10T03:41:43.469Z,14.50
2019-06-10T03:44:13.157Z,14.50
2019-06-10T03:46:43.144Z,14.50
2019-06-10T03:49:12.793Z,14.50
2019-06-10T03:51:42.785Z,14.50
2019-06-10T03:54:13.100Z,14.60
2019-06-10T03:56:42.995Z,14.60
2019-06-10T03:59:12.343Z,14.60
2019-06-10T04:01:42.692Z,14.60
2019-06-10T04:04:13.127Z,14.60
2019-06-10T04:06:44.330Z,14.60
2019-06-10T04:09:12.868Z,14.60
2019-06-10T04:11:43.156Z,14.60
2019-06-10T04:14:13.018Z,14.50
2019-06-10T04:16:43.383Z,14.50
2019-06-10T04:19:13.152Z,14.50
2019-06-10T04:21:43.345Z,14.50
2019-06-10T04:24:12.927Z,14.40
2019-06-10T04:26:43.470Z,14.40
2019-06-10T04:29:12.892Z,14.40
2019-06-10T04:31:42.603Z,14.30
2019-06-10T04:34:12.496Z,14.30
2019-06-10T04:36:42.342Z,14.20
2019-06-10T04:39:12.527Z,14.20
2019-06-10T04:41:42.689Z,14.20
2019-06-10T04:44:13.157Z,14.20
2019-06-10T04:46:42.799Z,14.20
2019-06-10T04:49:13.181Z,14.20
2019-06-10T04:51:43.468Z,14.20
2019-06-10T04:54:13.325Z,14.30
2019-06-10T04:56:42.926Z,14.30
2019-06-10T04:59:12.547Z,14.20
2019-06-10T05:01:42.664Z,14.20
2019-06-10T05:04:12.797Z,14.30
2019-06-10T05:06:42.336Z,14.30
2019-06-10T05:09:12.479Z,14.30
2019-06-10T05:11:43.197Z,14.30
2019-06-10T05:14:13.256Z,14.30
2019-06-10T05:16:43.180Z,14.40
2019-06-10T05:19:12.821Z,14.40
2019-06-10T05:21:42.515Z,14.40
2019-06-10T05:24:12.433Z,14.40
2019-06-10T05:26:42.494Z,14.40
2019-06-10T05:29:12.134Z,14.50
2019-06-10T05:31:43.541Z,14.40
2019-06-10T05:34:13.125Z,14.50
2019-06-10T05:36:43.570Z,14.50
2019-06-10T05:39:12.777Z,14.50
2019-06-10T05:41:43.317Z,14.50
2019-06-10T05:44:13.430Z,14.50
2019-06-10T05:46:43.478Z,14.40
2019-06-10T05:49:12.807Z,14.40
2019-06-10T05:51:42.364Z,14.40
2019-06-10T05:54:12.819Z,14.40
2019-06-10T05:56:43.275Z,14.40
2019-06-10T05:59:12.635Z,14.40
2019-06-10T06:01:43.138Z,14.40
2019-06-10T06:04:12.817Z,14.30
2019-06-10T06:06:44.950Z,14.20
2019-06-10T06:09:12.968Z,14.30
2019-06-10T06:11:43.013Z,14.30
2019-06-10T06:14:13.262Z,14.40
2019-06-10T06:16:43.252Z,14.50
2019-06-10T06:19:12.754Z,14.60
2019-06-10T06:21:47.069Z,14.70
2019-06-10T06:24:12.979Z,14.70
2019-06-10T06:26:43.274Z,14.60
2019-06-10T06:29:12.967Z,14.70
2019-06-10T06:31:42.928Z,14.80
2019-06-10T06:34:14.016Z,14.90
2019-06-10T06:36:43.264Z,15.10
2019-06-10T06:39:12.849Z,15.20
2019-06-10T06:41:42.808Z,15.30
2019-06-10T06:44:13.026Z,15.50
2019-06-10T06:46:42.982Z,15.60
2019-06-10T06:49:12.942Z,15.80
2019-06-10T06:51:51.744Z,15.90
2019-06-10T06:54:12.644Z,15.90
2019-06-10T06:56:43.709Z,16.10
2019-06-10T06:59:13.196Z,16.20
2019-06-10T07:01:44.076Z,16.10
2019-06-10T07:04:13.411Z,16.10
2019-06-10T07:06:43.213Z,16.20
2019-06-10T07:09:13.513Z,16.20
2019-06-10T07:11:45.109Z,16.20
2019-06-10T07:14:14.416Z,16.30
2019-06-10T07:16:46.139Z,16.40
2019-06-10T07:19:13.943Z,16.60
2019-06-10T07:22:02.304Z,16.80
2019-06-10T07:24:14.211Z,17.20
2019-06-10T07:26:50.528Z,17.70
2019-06-10T07:29:14.051Z,18.20
2019-06-10T07:31:45.933Z,18.00
2019-06-10T07:34:14.665Z,17.70
2019-06-10T07:36:44.102Z,17.30
2019-06-10T07:39:13.666Z,17.10
2019-06-10T07:41:47.509Z,17.00
2019-06-10T07:44:12.652Z,16.90
2019-06-10T07:46:45.230Z,16.90
2019-06-10T07:49:13.505Z,16.90
2019-06-10T07:51:46.166Z,16.90
2019-06-10T07:54:12.751Z,16.90
2019-06-10T07:56:49.850Z,16.80
2019-06-10T07:59:16.051Z,17.00
2019-06-10T08:01:51.395Z,17.10
2019-06-10T08:04:15.668Z,17.20
2019-06-10T08:06:45.809Z,17.40
2019-06-10T08:09:14.663Z,17.40
2019-06-10T08:11:46.707Z,17.40
2019-06-10T08:14:13.699Z,17.40
2019-06-10T08:16:45.093Z,17.40
2019-06-10T08:19:34.896Z,17.40
2019-06-10T08:21:47.410Z,17.30
2019-06-10T08:24:14.599Z,17.30
2019-06-10T08:26:45.302Z,17.20
2019-06-10T08:29:13.594Z,17.20
2019-06-10T08:31:46.539Z,17.20
2019-06-10T08:34:13.396Z,17.30
2019-06-10T08:36:47.256Z,17.50
2019-06-10T08:39:15.773Z,17.80
2019-06-10T08:41:46.117Z,18.00
2019-06-10T08:44:13.904Z,18.10
2019-06-10T08:46:44.994Z,18.20
2019-06-10T08:49:12.918Z,18.20
2019-06-10T08:51:45.433Z,18.20
2019-06-10T08:54:12.806Z,18.20
2019-06-10T08:56:45.579Z,18.40
2019-06-10T08:59:12.515Z,18.60
2019-06-10T09:01:46.055Z,18.70
2019-06-10T09:04:13.250Z,18.50
2019-06-10T09:06:47.192Z,18.40
2019-06-10T09:09:14.667Z,18.40
2019-06-10T09:11:47.443Z,18.50
2019-06-10T09:14:13.683Z,18.40
2019-06-10T09:16:45.873Z,18.40
2019-06-10T09:19:14.015Z,18.30
2019-06-10T09:21:48.117Z,18.30
2019-06-10T09:24:13.433Z,18.30
2019-06-10T09:26:45.058Z,18.40
2019-06-10T09:29:14.923Z,18.50
2019-06-10T09:31:46.783Z,18.60
2019-06-10T09:34:13.896Z,18.70
2019-06-10T09:36:47.649Z,18.70
2019-06-10T09:39:13.327Z,18.70
2019-06-10T09:41:50.301Z,18.70
2019-06-10T09:44:13.083Z,18.80
2019-06-10T09:46:47.016Z,18.80
2019-06-10T09:49:13.564Z,18.90
2019-06-10T09:51:46.398Z,18.80
2019-06-10T09:54:13.236Z,18.90
2019-06-10T09:56:44.065Z,19.10
2019-06-10T09:59:14.023Z,19.20
2019-06-10T10:01:47.194Z,19.20
2019-06-10T10:04:13.713Z,19.20
2019-06-10T10:06:46.661Z,19.10
2019-06-10T10:09:13.120Z,19.20
2019-06-10T10:11:44.489Z,19.30
2019-06-10T10:14:15.917Z,19.40
2019-06-10T10:16:48.634Z,19.60
2019-06-10T10:19:14.101Z,20.00
2019-06-10T10:21:47.767Z,20.20
2019-06-10T10:24:15.058Z,20.20
2019-06-10T10:26:47.159Z,20.20
2019-06-10T10:29:14.528Z,20.10
2019-06-10T10:31:47.018Z,20.30
2019-06-10T10:34:13.703Z,20.50
2019-06-10T10:36:44.948Z,20.50
2019-06-10T10:39:13.933Z,20.30
2019-06-10T10:41:45.203Z,20.00
2019-06-10T10:44:14.648Z,19.90
2019-06-10T10:46:44.380Z,19.90
2019-06-10T10:49:15.084Z,20.10
2019-06-10T10:51:44.899Z,20.20
2019-06-10T10:54:28.506Z,20.20
2019-06-10T10:56:46.264Z,20.20
2019-06-10T10:59:15.560Z,20.30
2019-06-10T11:01:45.770Z,20.40
2019-06-10T11:04:14.637Z,20.60
2019-06-10T11:06:44.537Z,20.80
2019-06-10T11:09:15.620Z,20.90
2019-06-10T11:11:45.729Z,20.90
2019-06-10T11:14:15.486Z,20.70
2019-06-10T11:16:45.280Z,20.60
2019-06-10T11:19:14.087Z,20.70
2019-06-10T11:21:43.373Z,20.70
2019-06-10T11:24:15.847Z,20.70
2019-06-10T11:26:43.355Z,20.70
2019-06-10T11:29:12.201Z,20.70
2019-06-10T11:31:42.589Z,20.60
2019-06-10T11:34:11.670Z,20.60
2019-06-10T11:36:42.510Z,20.50
2019-06-10T11:39:13.317Z,20.40
2019-06-10T11:41:43.113Z,20.20
2019-06-10T11:44:12.881Z,20.10
2019-06-10T11:46:43.083Z,20.10
2019-06-10T11:49:12.665Z,20.10
2019-06-10T11:51:41.774Z,20.00
2019-06-10T11:54:12.904Z,19.90
2019-06-10T11:56:42.224Z,19.70
2019-06-10T11:59:13.449Z,19.50
2019-06-10T12:01:42.835Z,19.30
2019-06-10T12:04:12.858Z,19.10
2019-06-10T12:06:42.635Z,18.90
2019-06-10T12:09:13.937Z,18.70
2019-06-10T12:11:44.092Z,18.60
2019-06-10T12:14:13.884Z,18.40
2019-06-10T12:19:14.104Z,18.20
2019-06-10T12:21:43.440Z,18.20
2019-06-10T12:24:12.967Z,18.20
2019-06-10T12:26:43.378Z,18.30
2019-06-10T12:29:12.529Z,18.50
2019-06-10T12:31:42.874Z,18.80
2019-06-10T12:34:12.486Z,19.00
2019-06-10T12:36:41.519Z,19.10
2019-06-10T12:39:11.948Z,19.10
2019-06-10T12:41:42.833Z,19.20
2019-06-10T12:44:12.391Z,19.10
2019-06-10T12:46:43.152Z,19.10
2019-06-10T12:49:13.030Z,19.10
2019-06-10T12:51:42.616Z,19.20
2019-06-10T12:54:13.179Z,19.50
2019-06-10T12:56:42.916Z,19.80
2019-06-10T12:59:13.579Z,20.00
2019-06-10T13:01:44.724Z,20.20
2019-06-10T13:04:13.795Z,20.30
2019-06-10T13:06:43.574Z,20.40
2019-06-10T13:09:12.901Z,20.50
2019-06-10T13:11:43.328Z,20.50
2019-06-10T13:14:13.017Z,20.50
2019-06-10T13:16:43.267Z,20.30
2019-06-10T13:19:13.203Z,20.10
2019-06-10T13:21:42.777Z,19.70
2019-06-10T13:24:13.239Z,19.20
2019-06-10T13:26:43.224Z,18.80
2019-06-10T13:29:16.870Z,18.70
2019-06-10T13:31:43.752Z,18.60
2019-06-10T13:34:14.711Z,18.60
2019-06-10T13:36:43.632Z,18.70
2019-06-10T13:39:13.515Z,18.90
2019-06-10T13:41:44.220Z,19.00
2019-06-10T13:44:16.440Z,19.30
2019-06-10T13:46:43.697Z,19.50
2019-06-10T13:49:14.894Z,19.60
2019-06-10T13:51:44.013Z,19.60
2019-06-10T13:54:13.999Z,19.70
2019-06-10T13:56:47.087Z,19.90
2019-06-10T13:59:14.251Z,19.90
2019-06-10T14:01:43.204Z,19.80
2019-06-10T14:04:21.155Z,19.80
2019-06-10T14:06:49.731Z,20.00
2019-06-10T14:09:16.616Z,20.20
2019-06-10T14:11:44.163Z,20.30
2019-06-10T14:14:17.567Z,20.20
2019-06-10T14:16:43.500Z,19.90
2019-06-10T14:19:16.349Z,19.70
2019-06-10T14:21:44.055Z,19.70
2019-06-10T14:24:15.801Z,19.60
2019-06-10T14:26:45.645Z,19.50
2019-06-10T14:29:15.963Z,19.30
2019-06-10T14:31:47.930Z,19.30
2019-06-10T14:34:18.399Z,19.50
2019-06-10T14:36:46.519Z,19.80
2019-06-10T14:39:16.080Z,20.00
2019-06-10T14:41:46.911Z,19.90
2019-06-10T14:44:17.782Z,19.60
2019-06-10T14:46:46.554Z,19.60
2019-06-10T14:49:16.871Z,19.30
2019-06-10T14:51:45.974Z,19.00
2019-06-10T14:54:17.909Z,18.70
2019-06-10T14:56:52.864Z,18.40
2019-06-10T14:59:17.975Z,18.10
2019-06-10T15:01:46.105Z,17.70
2019-06-10T15:04:16.657Z,17.60
2019-06-10T15:06:45.067Z,17.80
2019-06-10T15:09:13.763Z,17.80
2019-06-10T15:11:42.896Z,17.80
2019-06-10T15:14:14.012Z,17.60
2019-06-10T15:16:43.761Z,17.40
2019-06-10T15:19:21.189Z,17.50
2019-06-10T15:21:43.328Z,17.60
2019-06-10T15:24:12.079Z,17.60
2019-06-10T15:26:42.242Z,17.80
2019-06-10T15:29:13.951Z,18.00
2019-06-10T15:31:42.857Z,18.10
2019-06-10T15:34:15.048Z,17.80
2019-06-10T15:36:43.201Z,17.40
2019-06-10T15:39:16.461Z,17.40
2019-06-10T15:41:42.863Z,17.40
2019-06-10T15:44:14.623Z,17.60
2019-06-10T15:46:43.146Z,17.50
2019-06-10T15:49:15.821Z,17.50
2019-06-10T15:51:43.538Z,17.40
2019-06-10T15:54:14.014Z,17.40
2019-06-10T15:56:51.953Z,17.20
2019-06-10T15:59:16.708Z,17.20
2019-06-10T16:01:44.920Z,17.10
2019-06-10T16:04:15.689Z,17.30
2019-06-10T16:06:44.352Z,17.50
2019-06-10T16:09:14.184Z,17.40
2019-06-10T16:11:43.691Z,17.20
2019-06-10T16:14:12.646Z,17.00
2019-06-10T16:16:43.259Z,16.90
2019-06-10T16:19:13.364Z,16.80
2019-06-10T16:21:43.047Z,16.80
2019-06-10T16:24:13.605Z,17.00
2019-06-10T16:26:42.020Z,17.20
2019-06-10T16:29:12.341Z,17.30
2019-06-10T16:31:42.575Z,17.10
2019-06-10T16:34:12.732Z,16.90
2019-06-10T16:36:42.940Z,16.90
2019-06-10T16:39:12.532Z,16.80
2019-06-10T16:41:43.038Z,16.70
2019-06-10T16:44:13.538Z,16.60
2019-06-10T16:46:43.145Z,16.60
2019-06-10T16:49:12.719Z,16.70
2019-06-10T16:51:42.893Z,16.60
2019-06-10T16:54:12.993Z,16.60
2019-06-10T16:56:43.470Z,16.60
2019-06-10T16:59:12.536Z,16.50
2019-06-10T17:01:42.829Z,16.30
2019-06-10T17:04:12.445Z,16.40
2019-06-10T17:06:42.198Z,16.30
2019-06-10T17:09:13.284Z,16.30
2019-06-10T17:11:42.591Z,16.30
2019-06-10T17:14:12.543Z,16.20
2019-06-10T17:16:41.528Z,16.10
2019-06-10T17:19:10.219Z,15.90
2019-06-10T17:21:39.079Z,15.80
2019-06-10T17:24:08.013Z,15.70
2019-06-10T17:26:38.268Z,15.60
2019-06-10T17:29:07.437Z,15.60
2019-06-10T17:31:36.179Z,15.80
2019-06-10T17:34:04.972Z,15.80
2019-06-10T17:36:35.359Z,16.00
2019-06-10T17:39:05.723Z,16.10
2019-06-10T17:41:35.216Z,16.10
2019-06-10T17:44:04.387Z,16.10
2019-06-10T17:46:35.220Z,16.20
2019-06-10T17:49:04.148Z,16.20
2019-06-10T17:51:35.569Z,16.20
2019-06-10T17:54:03.584Z,16.20
2019-06-10T17:56:36.027Z,16.30
2019-06-10T17:59:03.351Z,16.30
2019-06-10T18:01:35.599Z,16.30
2019-06-10T18:04:03.102Z,16.30
2019-06-10T18:06:34.416Z,16.30
2019-06-10T18:09:04.042Z,16.20
2019-06-10T18:11:34.512Z,16.20
2019-06-10T18:14:03.214Z,16.20
2019-06-10T18:16:42.608Z,16.20
2019-06-10T18:19:10.468Z,16.10
2019-06-10T18:21:39.471Z,16.00
2019-06-10T18:24:08.805Z,15.90
2019-06-10T18:26:38.045Z,15.80
2019-06-10T18:29:09.339Z,15.80
2019-06-10T18:31:37.468Z,15.80
2019-06-10T18:34:06.195Z,15.80
2019-06-10T18:36:36.279Z,15.70
2019-06-10T18:39:06.130Z,15.50
2019-06-10T18:41:34.882Z,15.40
2019-06-10T18:44:18.745Z,15.40
2019-06-10T18:46:36.491Z,15.30
2019-06-10T18:49:05.205Z,15.20
2019-06-10T18:51:36.026Z,15.20
2019-06-10T18:54:04.477Z,15.10
2019-06-10T18:56:35.581Z,15.00
2019-06-10T18:59:15.812Z,15.00
2019-06-10T19:01:34.448Z,15.00
2019-06-10T19:04:03.235Z,15.00
2019-06-10T19:06:33.842Z,14.90
2019-06-10T19:09:03.331Z,14.90
2019-06-10T19:11:34.135Z,15.00
2019-06-10T19:14:03.346Z,14.90
2019-06-10T19:16:34.173Z,14.90
2019-06-10T19:19:02.839Z,14.90
2019-06-10T19:21:32.398Z,14.80
2019-06-10T19:24:03.263Z,14.80
2019-06-10T19:26:33.968Z,14.80
2019-06-10T19:29:03.741Z,14.80
2019-06-10T19:31:36.231Z,14.80
2019-06-10T19:34:03.385Z,14.80
2019-06-10T19:36:33.503Z,14.80
2019-06-10T19:39:02.462Z,14.80
2019-06-10T19:41:34.896Z,14.80
2019-06-10T19:44:02.494Z,14.80
2019-06-10T19:46:33.792Z,14.70
2019-06-10T19:49:04.124Z,14.60
2019-06-10T19:51:34.632Z,14.60
2019-06-10T19:54:03.761Z,14.60
2019-06-10T19:56:33.135Z,14.60
2019-06-10T19:59:01.839Z,14.60
2019-06-10T20:01:33.322Z,14.60
2019-06-10T20:04:02.620Z,14.60
2019-06-10T20:06:32.322Z,14.70
2019-06-10T20:09:02.738Z,14.70
2019-06-10T20:11:32.208Z,14.70
2019-06-10T20:14:02.604Z,14.70
2019-06-10T20:16:31.486Z,14.70
2019-06-10T20:19:02.878Z,14.60
2019-06-10T20:21:32.869Z,14.60
2019-06-10T20:24:02.722Z,14.60
2019-06-10T20:26:32.905Z,14.60
2019-06-10T20:29:03.834Z,14.60
2019-06-10T20:31:32.730Z,14.60
2019-06-10T20:34:02.638Z,14.60
2019-06-10T20:36:33.409Z,14.50
2019-06-10T20:39:02.351Z,14.50
2019-06-10T20:41:31.007Z,14.50
2019-06-10T20:43:59.771Z,14.50
2019-06-10T20:46:28.424Z,14.40
2019-06-10T20:48:57.130Z,14.40
2019-06-10T20:51:27.290Z,14.30
2019-06-10T20:53:57.062Z,14.30
2019-06-10T20:56:26.024Z,14.10
2019-06-10T20:58:54.718Z,14.10
2019-06-10T21:01:25.143Z,14.10
2019-06-10T21:03:54.413Z,14.10
2019-06-10T21:06:23.600Z,14.10
2019-06-10T21:08:53.201Z,14.00
2019-06-10T21:11:23.073Z,14.00
2019-06-10T21:13:53.129Z,13.90
2019-06-10T21:16:22.982Z,13.90
2019-06-10T21:18:55.476Z,14.00
2019-06-10T21:21:23.149Z,13.90
2019-06-10T21:23:54.029Z,13.90
2019-06-10T21:26:23.575Z,13.90
2019-06-10T21:28:55.099Z,13.90
2019-06-10T21:31:23.987Z,13.90
2019-06-10T21:33:55.651Z,13.80
2019-06-10T21:36:23.139Z,13.70
2019-06-10T21:38:55.360Z,13.70
2019-06-10T21:41:22.724Z,13.70
2019-06-10T21:43:58.945Z,13.70
2019-06-10T21:46:22.755Z,13.60
2019-06-10T21:48:53.189Z,13.50
2019-06-10T21:51:22.914Z,13.50
2019-06-10T21:53:53.807Z,13.40
2019-06-10T21:56:22.716Z,13.40
2019-06-10T21:58:53.630Z,13.40
2019-06-10T22:01:22.590Z,13.40
2019-06-10T22:03:59.924Z,13.30
2019-06-10T22:06:22.813Z,13.30
2019-06-10T22:08:54.458Z,13.20
2019-06-10T22:11:23.358Z,13.20
2019-06-10T22:13:54.230Z,13.10
2019-06-10T22:16:22.977Z,13.10
2019-06-10T22:18:52.900Z,13.10
2019-06-10T22:21:22.720Z,13.10
2019-06-10T22:23:55.026Z,13.10
2019-06-10T22:26:22.664Z,13.10
2019-06-10T22:28:53.851Z,13.00
2019-06-10T22:31:25.735Z,13.00
2019-06-10T22:33:55.805Z,13.00
2019-06-10T22:36:23.295Z,13.10
2019-06-10T22:38:55.816Z,13.00
2019-06-10T22:41:22.715Z,13.10
2019-06-10T22:43:54.547Z,13.00
2019-06-10T22:46:23.149Z,13.00
2019-06-10T22:48:53.395Z,13.10
2019-06-10T22:51:22.754Z,13.00
2019-06-10T22:53:54.719Z,12.90
2019-06-10T22:56:22.004Z,12.90
2019-06-10T22:58:53.944Z,12.90
2019-06-10T23:01:33.608Z,12.90
2019-06-10T23:03:52.559Z,12.90
2019-06-10T23:06:23.277Z,12.80
2019-06-10T23:08:54.766Z,12.80
2019-06-10T23:11:23.995Z,12.80
2019-06-10T23:13:54.729Z,12.70
2019-06-10T23:16:23.423Z,12.80
2019-06-10T23:18:54.953Z,12.80
2019-06-10T23:21:23.599Z,12.70
2019-06-10T23:23:54.264Z,12.70
2019-06-10T23:26:22.735Z,12.70
2019-06-10T23:28:53.840Z,12.70
2019-06-10T23:31:23.359Z,12.70
2019-06-10T23:33:55.981Z,12.70
2019-06-10T23:36:23.544Z,12.70
2019-06-10T23:38:52.956Z,12.60
2019-06-10T23:41:22.367Z,12.70
2019-06-10T23:43:51.304Z,12.60
2019-06-10T23:46:22.591Z,12.70
2019-06-10T23:48:51.503Z,12.70
2019-06-10T23:51:22.658Z,12.80
2019-06-10T23:53:55.333Z,12.80
2019-06-10T23:56:22.137Z,12.70
2019-06-10T23:58:52.789Z,12.70
